createdAt,value
2018-12-25T00:01:06.019Z,3.93
2018-12-25T00:03:36.258Z,4.90
2018-12-25T00:06:06.634Z,5.60
2018-12-25T00:08:36.976Z,4.47
2018-12-25T00:11:07.393Z,5.07
2018-12-25T00:13:37.705Z,7.17
2018-12-25T00:16:08.112Z,5.97
2018-12-25T00:18:38.456Z,5.57
2018-12-25T00:21:08.768Z,6.47
2018-12-25T00:23:39.045Z,4.83
2018-12-25T00:26:09.334Z,8.03
2018-12-25T00:28:39.618Z,6.77
2018-12-25T00:31:09.976Z,4.93
2018-12-25T00:33:40.269Z,8.83
2018-12-25T00:36:10.593Z,4.07
2018-12-25T00:38:40.987Z,9.53
2018-12-25T00:41:11.358Z,5.47
2018-12-25T00:43:41.745Z,2.63
2018-12-25T00:46:12.069Z,5.27
2018-12-25T00:48:42.335Z,5.10
2018-12-25T00:51:12.679Z,4.17
2018-12-25T00:53:42.961Z,3.27
2018-12-25T00:56:13.267Z,6.13
2018-12-25T00:58:43.558Z,5.07
2018-12-25T01:01:14.084Z,6.77
2018-12-25T01:03:44.369Z,6.00
2018-12-25T01:06:14.632Z,6.33
2018-12-25T01:08:44.960Z,4.63
2018-12-25T01:11:15.339Z,4.67
2018-12-25T01:13:45.695Z,3.87
2018-12-25T01:16:16.058Z,5.63
2018-12-25T01:18:46.347Z,3.47
2018-12-25T01:21:16.522Z,7.17
2018-12-25T01:23:46.851Z,4.90
2018-12-25T01:26:17.149Z,6.20
2018-12-25T01:28:47.472Z,3.87
2018-12-25T01:31:17.758Z,3.60
2018-12-25T01:33:48.163Z,6.03
2018-12-25T01:36:18.472Z,5.40
2018-12-25T01:38:48.786Z,4.07
2018-12-25T01:41:18.980Z,8.80
2018-12-25T01:43:49.184Z,7.33
2018-12-25T01:46:19.486Z,3.50
2018-12-25T01:48:49.884Z,3.93
2018-12-25T01:51:20.233Z,6.37
2018-12-25T01:53:50.576Z,5.00
2018-12-25T01:56:20.958Z,6.33
2018-12-25T01:58:51.338Z,5.00
2018-12-25T02:01:21.638Z,4.23
2018-12-25T02:03:51.981Z,3.13
2018-12-25T02:06:22.230Z,6.43
2018-12-25T02:08:52.520Z,5.03
2018-12-25T02:11:22.964Z,3.90
2018-12-25T02:13:53.222Z,5.00
2018-12-25T02:16:23.652Z,3.93
2018-12-25T02:18:54.042Z,4.33
2018-12-25T02:21:24.354Z,5.47
2018-12-25T02:23:54.708Z,4.87
2018-12-25T02:26:24.976Z,5.23
2018-12-25T02:28:55.266Z,6.47
2018-12-25T02:31:25.557Z,6.90
2018-12-25T02:33:55.835Z,6.70
2018-12-25T02:36:26.202Z,3.53
2018-12-25T02:38:56.491Z,4.23
2018-12-25T02:41:26.790Z,3.53
2018-12-25T02:43:57.095Z,5.03
2018-12-25T02:46:27.341Z,3.73
2018-12-25T02:48:57.637Z,2.87
2018-12-25T02:51:27.896Z,3.50
2018-12-25T02:53:58.202Z,5.67
2018-12-25T02:56:28.503Z,5.93
2018-12-25T02:58:58.786Z,2.33
2018-12-25T03:01:29.234Z,5.60
2018-12-25T03:03:59.514Z,2.97
2018-12-25T03:06:29.951Z,3.90
2018-12-25T03:09:00.265Z,3.83
2018-12-25T03:11:30.637Z,4.37
2018-12-25T03:14:00.982Z,4.40
2018-12-25T03:16:31.260Z,2.97
2018-12-25T03:19:01.573Z,2.90
2018-12-25T03:21:31.862Z,3.77
2018-12-25T03:24:02.125Z,3.87
2018-12-25T03:26:32.654Z,6.87
2018-12-25T03:29:02.987Z,5.07
2018-12-25T03:31:33.314Z,8.00
2018-12-25T03:34:03.616Z,4.43
2018-12-25T03:36:33.906Z,4.07
2018-12-25T03:39:05.947Z,3.23
2018-12-25T03:41:36.211Z,4.67
2018-12-25T03:44:06.561Z,5.13
2018-12-25T03:46:36.885Z,3.70
2018-12-25T03:49:07.181Z,6.13
2018-12-25T03:51:37.567Z,2.80
2018-12-25T03:54:07.913Z,3.00
2018-12-25T03:56:38.286Z,5.47
2018-12-25T03:59:08.677Z,3.43
2018-12-25T04:01:39.111Z,4.73
2018-12-25T04:04:09.358Z,7.03
2018-12-25T04:06:39.571Z,8.03
2018-12-25T04:09:09.849Z,8.00
2018-12-25T04:11:40.027Z,5.07
2018-12-25T04:14:10.278Z,4.47
2018-12-25T04:16:40.575Z,5.37
2018-12-25T04:19:10.881Z,3.03
2018-12-25T04:21:41.236Z,4.03
2018-12-25T04:24:11.534Z,4.67
2018-12-25T04:26:41.813Z,6.97
2018-12-25T04:29:12.096Z,3.77
2018-12-25T04:31:42.413Z,4.37
2018-12-25T04:34:12.775Z,4.60
2018-12-25T04:36:43.165Z,6.60
2018-12-25T04:39:13.522Z,7.03
2018-12-25T04:41:43.843Z,7.57
2018-12-25T04:44:14.230Z,6.03
2018-12-25T04:46:44.747Z,5.03
2018-12-25T04:49:15.067Z,3.40
2018-12-25T04:51:45.457Z,3.70
2018-12-25T04:54:15.803Z,4.60
2018-12-25T04:56:46.030Z,3.23
2018-12-25T04:59:16.342Z,4.20
2018-12-25T05:01:46.785Z,4.73
2018-12-25T05:04:17.106Z,4.77
2018-12-25T05:06:47.551Z,2.93
2018-12-25T05:09:17.881Z,4.43
2018-12-25T05:11:48.150Z,3.70
2018-12-25T05:14:18.447Z,6.83
2018-12-25T05:16:48.653Z,3.60
2018-12-25T05:19:18.870Z,3.43
2018-12-25T05:21:49.366Z,3.97
2018-12-25T05:24:19.657Z,3.47
2018-12-25T05:26:50.031Z,4.30
2018-12-25T05:29:20.283Z,4.83
2018-12-25T05:31:50.629Z,3.07
2018-12-25T05:34:20.835Z,5.13
2018-12-25T05:36:51.168Z,4.67
2018-12-25T05:39:21.565Z,4.53
2018-12-25T05:41:51.855Z,4.17
2018-12-25T05:44:22.075Z,3.30
2018-12-25T05:46:52.482Z,3.67
2018-12-25T05:49:22.784Z,3.43
2018-12-25T05:51:53.027Z,3.37
2018-12-25T05:54:23.337Z,4.00
2018-12-25T05:56:53.714Z,4.87
2018-12-25T05:59:23.796Z,3.53
2018-12-25T06:01:54.415Z,3.47
2018-12-25T06:04:24.718Z,5.60
2018-12-25T06:06:55.174Z,5.47
2018-12-25T06:09:25.451Z,2.83
2018-12-25T06:11:55.862Z,4.33
2018-12-25T06:14:26.286Z,5.73
2018-12-25T06:16:56.684Z,4.47
2018-12-25T06:19:26.916Z,4.87
2018-12-25T06:21:57.271Z,6.30
2018-12-25T06:24:27.644Z,5.30
2018-12-25T06:26:58.039Z,5.20
2018-12-25T06:29:28.345Z,8.63
2018-12-25T06:31:58.742Z,6.77
2018-12-25T06:34:28.988Z,4.47
2018-12-25T06:36:59.332Z,5.50
2018-12-25T06:39:29.604Z,5.10
2018-12-25T06:41:59.968Z,8.17
2018-12-25T06:44:30.338Z,4.17
2018-12-25T06:47:00.754Z,5.07
2018-12-25T06:49:31.027Z,3.73
2018-12-25T06:52:01.363Z,4.03
2018-12-25T06:54:31.693Z,3.53
2018-12-25T06:57:01.920Z,4.10
2018-12-25T06:59:32.474Z,5.37
2018-12-25T07:02:02.779Z,7.10
2018-12-25T07:04:32.904Z,6.07
2018-12-25T07:07:03.261Z,3.97
2018-12-25T07:09:33.462Z,4.90
2018-12-25T07:12:03.659Z,5.87
2018-12-25T07:14:33.825Z,6.73
2018-12-25T07:17:04.031Z,5.07
2018-12-25T07:19:34.367Z,4.87
2018-12-25T07:22:04.595Z,9.63
2018-12-25T07:24:34.729Z,5.80
2018-12-25T07:27:04.957Z,4.70
2018-12-25T07:29:35.237Z,3.43
2018-12-25T07:32:05.423Z,5.17
2018-12-25T07:34:35.564Z,4.43
2018-12-25T07:37:05.887Z,3.57
2018-12-25T07:39:36.175Z,5.07
2018-12-25T07:42:07.343Z,4.47
2018-12-25T07:44:37.820Z,7.50
2018-12-25T07:47:08.743Z,4.73
2018-12-25T07:49:39.757Z,6.43
2018-12-25T07:52:10.336Z,6.73
2018-12-25T07:54:40.881Z,3.47
2018-12-25T07:57:11.368Z,5.43
2018-12-25T07:59:41.899Z,5.53
2018-12-25T08:02:12.757Z,4.77
2018-12-25T08:04:43.363Z,9.57
2018-12-25T08:07:13.912Z,6.00
2018-12-25T08:09:45.226Z,4.33
2018-12-25T08:12:16.021Z,3.10
2018-12-25T08:14:46.573Z,5.67
2018-12-25T08:17:17.297Z,6.53
2018-12-25T08:19:48.353Z,4.37
2018-12-25T08:22:19.245Z,7.20
2018-12-25T08:24:49.844Z,4.23
2018-12-25T08:27:20.461Z,4.93
2018-12-25T08:29:51.135Z,5.90
2018-12-25T08:32:21.701Z,3.73
2018-12-25T08:34:52.145Z,4.67
2018-12-25T08:37:22.587Z,4.60
2018-12-25T08:39:53.273Z,5.27
2018-12-25T08:42:23.761Z,6.57
2018-12-25T08:44:54.740Z,8.27
2018-12-25T08:47:25.303Z,4.27
2018-12-25T08:49:56.103Z,5.70
2018-12-25T08:52:26.711Z,3.97
2018-12-25T08:54:57.316Z,6.33
2018-12-25T08:57:27.974Z,3.57
2018-12-25T08:59:58.646Z,7.03
2018-12-25T09:02:29.504Z,2.93
2018-12-25T09:04:59.815Z,2.77
2018-12-25T09:07:30.355Z,2.83
2018-12-25T09:10:01.010Z,3.80
2018-12-25T09:12:31.886Z,6.07
2018-12-25T09:15:02.311Z,4.33
2018-12-25T09:17:32.892Z,4.27
2018-12-25T09:20:03.587Z,4.17
2018-12-25T09:22:34.262Z,9.80
2018-12-25T09:25:05.059Z,8.57
2018-12-25T09:27:35.986Z,3.67
2018-12-25T09:30:07.268Z,9.53
2018-12-25T09:32:37.773Z,4.27
2018-12-25T09:35:08.325Z,6.10
2018-12-25T09:37:38.842Z,8.10
2018-12-25T09:40:09.560Z,6.70
2018-12-25T09:42:40.457Z,6.50
2018-12-25T09:45:11.204Z,4.47
2018-12-25T09:47:41.817Z,4.20
2018-12-25T09:50:12.276Z,4.03
2018-12-25T09:52:42.870Z,6.43
2018-12-25T09:55:13.354Z,3.83
2018-12-25T09:57:43.947Z,7.23
2018-12-25T10:00:14.804Z,6.03
2018-12-25T10:02:45.239Z,3.67
2018-12-25T10:05:16.090Z,2.83
2018-12-25T10:07:47.182Z,4.07
2018-12-25T10:10:18.251Z,3.53
2018-12-25T10:12:48.903Z,5.70
2018-12-25T10:15:19.550Z,6.97
2018-12-25T10:17:49.867Z,6.07
2018-12-25T10:20:20.384Z,3.20
2018-12-25T10:22:51.163Z,3.73
2018-12-25T10:25:21.915Z,3.60
2018-12-25T10:27:52.386Z,4.50
2018-12-25T10:30:23.066Z,4.03
2018-12-25T10:32:53.544Z,3.40
2018-12-25T10:35:24.079Z,3.07
2018-12-25T10:37:54.630Z,2.00
2018-12-25T10:40:25.102Z,4.47
2018-12-25T10:42:55.642Z,2.83
2018-12-25T10:45:26.088Z,3.73
2018-12-25T10:47:56.544Z,3.43
2018-12-25T10:50:26.950Z,3.43
2018-12-25T10:52:57.306Z,4.80
2018-12-25T10:55:27.894Z,3.20
2018-12-25T10:57:58.669Z,5.23
2018-12-25T11:00:34.560Z,2.27
2018-12-25T11:03:04.912Z,5.43
2018-12-25T11:05:35.428Z,5.77
2018-12-25T11:08:06.106Z,3.17
2018-12-25T11:10:36.874Z,5.77
2018-12-25T11:13:07.817Z,5.10
2018-12-25T11:15:38.424Z,3.70
2018-12-25T11:18:09.180Z,2.90
2018-12-25T11:20:41.370Z,6.93
2018-12-25T11:23:12.039Z,5.93
2018-12-25T11:25:43.124Z,3.07
2018-12-25T11:28:13.732Z,6.83
2018-12-25T11:30:44.527Z,5.10
2018-12-25T11:33:14.910Z,4.10
2018-12-25T11:35:45.373Z,4.37
2018-12-25T11:38:16.242Z,2.87
2018-12-25T11:40:46.965Z,5.43
2018-12-25T11:43:17.363Z,7.70
2018-12-25T11:45:47.789Z,6.60
2018-12-25T11:48:18.565Z,5.37
2018-12-25T11:50:49.277Z,4.60
2018-12-25T11:53:19.829Z,5.60
2018-12-25T11:55:50.174Z,3.00
2018-12-25T11:58:21.030Z,5.17
2018-12-25T12:00:52.154Z,4.07
2018-12-25T12:03:22.532Z,7.73
2018-12-25T12:05:53.116Z,3.77
2018-12-25T12:08:23.669Z,4.73
2018-12-25T12:10:54.660Z,4.90
2018-12-25T12:13:25.390Z,3.83
2018-12-25T12:15:55.992Z,7.27
2018-12-25T12:18:26.662Z,2.90
2018-12-25T12:20:57.223Z,4.40
2018-12-25T12:23:27.852Z,5.37
2018-12-25T12:25:58.528Z,4.50
2018-12-25T12:28:29.110Z,3.53
2018-12-25T12:30:59.755Z,3.83
2018-12-25T12:33:30.436Z,5.40
2018-12-25T12:36:01.069Z,3.00
2018-12-25T12:38:31.847Z,3.73
2018-12-25T12:41:02.247Z,2.70
2018-12-25T12:43:32.783Z,4.53
2018-12-25T12:46:03.451Z,2.53
2018-12-25T12:48:34.035Z,3.80
2018-12-25T12:51:04.694Z,6.67
2018-12-25T12:53:35.354Z,6.67
2018-12-25T12:56:06.008Z,4.20
2018-12-25T12:58:39.046Z,4.37
2018-12-25T13:01:10.343Z,5.23
2018-12-25T13:03:40.932Z,3.87
2018-12-25T13:06:11.542Z,5.60
2018-12-25T13:08:42.224Z,4.20
2018-12-25T13:11:12.961Z,4.63
2018-12-25T13:13:43.531Z,3.07
2018-12-25T13:16:14.183Z,4.50
2018-12-25T13:18:44.711Z,3.20
2018-12-25T13:21:15.212Z,1.70
2018-12-25T13:23:45.844Z,2.67
2018-12-25T13:26:16.196Z,4.37
2018-12-25T13:28:46.640Z,9.00
2018-12-25T13:31:17.085Z,3.20
2018-12-25T13:33:47.374Z,3.47
2018-12-25T13:36:18.515Z,7.03
2018-12-25T13:38:48.907Z,6.83
2018-12-25T13:41:19.425Z,2.07
2018-12-25T13:43:49.882Z,3.60
2018-12-25T13:46:20.247Z,5.67
2018-12-25T13:48:50.775Z,3.87
2018-12-25T13:51:21.155Z,5.00
2018-12-25T13:53:51.537Z,3.23
2018-12-25T13:56:21.996Z,4.50
2018-12-25T13:58:52.332Z,4.00
2018-12-25T14:01:23.241Z,3.73
2018-12-25T14:03:53.963Z,2.70
2018-12-25T14:06:24.675Z,3.20
2018-12-25T14:08:56.212Z,3.27
2018-12-25T14:11:26.872Z,1.43
2018-12-25T14:13:57.283Z,3.80
2018-12-25T14:16:27.955Z,2.23
2018-12-25T14:18:58.470Z,3.33
2018-12-25T14:21:28.956Z,4.50
2018-12-25T14:23:59.369Z,7.90
2018-12-25T14:26:29.687Z,8.47
2018-12-25T14:29:00.221Z,3.27
2018-12-25T14:31:30.830Z,3.23
2018-12-25T14:34:02.129Z,10.73
2018-12-25T14:36:32.701Z,3.57
2018-12-25T14:39:04.763Z,4.73
2018-12-25T14:41:44.939Z,2.90
2018-12-25T14:44:15.325Z,6.43
2018-12-25T14:46:45.762Z,3.07
2018-12-25T14:49:18.192Z,4.97
2018-12-25T14:51:48.303Z,3.10
2018-12-25T14:54:18.919Z,4.57
2018-12-25T14:56:49.331Z,9.40
2018-12-25T14:59:19.677Z,3.33
2018-12-25T15:01:49.995Z,3.53
2018-12-25T15:04:20.289Z,4.07
2018-12-25T15:06:50.524Z,4.17
2018-12-25T15:09:20.718Z,4.97
2018-12-25T15:11:51.015Z,5.83
2018-12-25T15:14:21.479Z,3.33
2018-12-25T15:16:51.651Z,4.23
2018-12-25T15:19:21.955Z,4.87
2018-12-25T15:21:52.130Z,3.33
2018-12-25T15:24:22.345Z,7.20
2018-12-25T15:26:52.675Z,5.20
2018-12-25T15:29:23.519Z,3.67
2018-12-25T15:31:53.826Z,3.87
2018-12-25T15:34:24.105Z,5.77
2018-12-25T15:36:54.268Z,2.90
2018-12-25T15:39:24.411Z,2.77
2018-12-25T15:41:54.617Z,6.13
2018-12-25T15:44:24.906Z,2.83
2018-12-25T15:46:55.175Z,2.83
2018-12-25T15:49:25.417Z,4.17
2018-12-25T15:51:55.685Z,3.80
2018-12-25T15:54:25.997Z,2.33
2018-12-25T15:56:57.841Z,6.57
2018-12-25T15:59:28.147Z,5.17
2018-12-25T16:01:58.561Z,11.93
2018-12-25T16:04:28.816Z,8.10
2018-12-25T16:06:59.093Z,6.13
2018-12-25T16:09:29.474Z,3.80
2018-12-25T16:11:59.747Z,3.83
2018-12-25T16:14:32.052Z,4.27
2018-12-25T16:17:02.295Z,7.07
2018-12-25T16:19:32.602Z,5.83
2018-12-25T16:22:02.818Z,11.60
2018-12-25T16:24:33.056Z,12.70
2018-12-25T16:27:03.389Z,11.43
2018-12-25T16:29:33.646Z,5.70
2018-12-25T16:32:03.926Z,9.23
2018-12-25T16:34:34.196Z,6.90
2018-12-25T16:37:04.470Z,3.73
2018-12-25T16:39:34.732Z,4.23
2018-12-25T16:42:04.995Z,6.37
2018-12-25T16:44:35.246Z,6.37
2018-12-25T16:47:05.569Z,4.23
2018-12-25T16:49:35.838Z,3.30
2018-12-25T16:52:06.060Z,7.70
2018-12-25T16:54:36.342Z,5.27
2018-12-25T16:57:06.730Z,4.73
2018-12-25T16:59:36.958Z,4.87
2018-12-25T17:02:07.690Z,5.23
2018-12-25T17:04:37.984Z,7.80
2018-12-25T17:07:08.264Z,4.00
2018-12-25T17:09:38.482Z,6.50
2018-12-25T17:12:08.715Z,4.57
2018-12-25T17:14:38.977Z,5.50
2018-12-25T17:17:09.407Z,5.53
2018-12-25T17:19:39.605Z,5.20
2018-12-25T17:22:09.902Z,3.13
2018-12-25T17:24:40.232Z,5.83
2018-12-25T17:27:10.553Z,5.40
2018-12-25T17:29:40.878Z,5.53
2018-12-25T17:32:11.183Z,10.47
2018-12-25T17:34:41.417Z,6.73
2018-12-25T17:37:11.646Z,7.33
2018-12-25T17:39:41.958Z,6.23
2018-12-25T17:42:12.631Z,5.10
2018-12-25T17:44:44.583Z,5.67
2018-12-25T17:47:14.873Z,6.17
2018-12-25T17:49:45.165Z,5.17
2018-12-25T17:52:15.455Z,6.50
2018-12-25T17:54:45.833Z,7.20
2018-12-25T17:57:16.190Z,6.57
2018-12-25T17:59:46.532Z,5.80
2018-12-25T18:02:17.068Z,8.67
2018-12-25T18:04:47.289Z,9.97
2018-12-25T18:07:17.520Z,5.90
2018-12-25T18:09:47.783Z,8.93
2018-12-25T18:12:18.102Z,12.53
2018-12-25T18:14:48.366Z,9.33
2018-12-25T18:17:18.928Z,6.83
2018-12-25T18:19:49.736Z,9.13
2018-12-25T18:22:19.937Z,6.83
2018-12-25T18:24:50.132Z,9.03
2018-12-25T18:27:20.441Z,6.23
2018-12-25T18:29:50.725Z,6.67
2018-12-25T18:32:20.973Z,9.57
2018-12-25T18:34:51.341Z,9.40
2018-12-25T18:37:21.655Z,10.73
2018-12-25T18:39:58.777Z,7.43
2018-12-25T18:42:29.080Z,8.20
2018-12-25T18:44:59.403Z,7.47
2018-12-25T18:47:29.715Z,7.67
2018-12-25T18:49:59.983Z,6.93
2018-12-25T18:52:31.011Z,6.93
2018-12-25T18:55:01.338Z,8.17
2018-12-25T18:57:31.727Z,11.90
2018-12-25T19:00:02.022Z,6.70
2018-12-25T19:02:32.533Z,8.50
2018-12-25T19:05:02.773Z,8.20
2018-12-25T19:07:33.079Z,10.73
2018-12-25T19:10:03.376Z,10.13
2018-12-25T19:12:33.581Z,10.30
2018-12-25T19:15:21.843Z,8.20
2018-12-25T19:17:53.359Z,7.63
2018-12-25T19:20:23.669Z,10.57
2018-12-25T19:22:53.901Z,7.37
2018-12-25T19:25:24.084Z,9.37
2018-12-25T19:27:54.211Z,6.27
2018-12-25T19:30:25.897Z,14.37
2018-12-25T19:32:56.172Z,9.50
2018-12-25T19:35:26.493Z,10.40
2018-12-25T19:37:56.802Z,8.90
2018-12-25T19:40:27.105Z,8.40
2018-12-25T19:42:57.401Z,13.57
2018-12-25T19:45:28.460Z,11.23
2018-12-25T19:47:58.832Z,10.30
2018-12-25T19:50:29.134Z,12.17
2018-12-25T19:52:59.459Z,11.10
2018-12-25T19:55:29.699Z,11.30
2018-12-25T19:57:59.975Z,12.70
2018-12-25T20:00:30.254Z,12.63
2018-12-25T20:03:13.901Z,10.33
2018-12-25T20:06:18.553Z,10.37
2018-12-25T20:09:21.724Z,13.13
2018-12-25T20:12:23.566Z,11.27
2018-12-25T20:15:38.045Z,12.37
2018-12-25T20:18:44.549Z,16.87
2018-12-25T20:21:52.170Z,14.57
2018-12-25T20:24:52.662Z,18.83
2018-12-25T20:27:44.438Z,17.73
2018-12-25T20:31:07.918Z,22.03
2018-12-25T20:34:34.559Z,22.53
2018-12-25T20:37:35.333Z,23.03
2018-12-25T20:40:45.389Z,26.30
2018-12-25T20:43:42.736Z,25.17
2018-12-25T20:46:53.236Z,23.23
2018-12-25T20:49:50.451Z,24.33
2018-12-25T20:53:20.702Z,27.60
2018-12-25T20:56:39.947Z,26.63
2018-12-25T20:59:49.548Z,24.20
2018-12-25T21:03:06.684Z,28.90
2018-12-25T21:06:09.169Z,27.53
2018-12-25T21:09:09.663Z,30.13
2018-12-25T21:12:18.870Z,27.30
2018-12-25T21:15:31.053Z,30.53
2018-12-25T21:19:06.889Z,30.17
2018-12-25T21:22:26.090Z,35.20
2018-12-25T21:25:32.358Z,30.83
2018-12-25T21:28:00.946Z,27.13
2018-12-25T21:30:31.240Z,31.57
2018-12-25T21:33:01.436Z,30.57
2018-12-25T21:35:31.707Z,33.77
2018-12-25T21:38:02.026Z,30.87
2018-12-25T21:40:32.766Z,31.73
2018-12-25T21:43:03.015Z,34.30
2018-12-25T21:45:33.246Z,35.37
2018-12-25T21:48:03.498Z,32.53
2018-12-25T21:50:33.848Z,34.80
2018-12-25T21:53:04.494Z,33.73
2018-12-25T21:55:34.716Z,31.70
2018-12-25T21:58:04.958Z,31.07
2018-12-25T22:00:36.005Z,30.00
2018-12-25T22:03:06.293Z,32.83
2018-12-25T22:05:36.544Z,32.90
2018-12-25T22:08:06.781Z,28.50
2018-12-25T22:10:37.034Z,29.43
2018-12-25T22:13:07.340Z,31.20
2018-12-25T22:15:37.672Z,30.67
2018-12-25T22:18:09.495Z,33.87
2018-12-25T22:20:40.558Z,33.50
2018-12-25T22:23:10.793Z,29.40
2018-12-25T22:25:41.387Z,29.77
2018-12-25T22:28:11.899Z,35.73
2018-12-25T22:30:42.131Z,28.33
2018-12-25T22:33:12.496Z,29.30
2018-12-25T22:35:42.729Z,27.97
2018-12-25T22:38:13.059Z,26.10
2018-12-25T22:40:43.388Z,29.40
2018-12-25T22:43:13.689Z,27.10
2018-12-25T22:45:43.893Z,25.07
2018-12-25T22:48:14.070Z,30.40
2018-12-25T22:50:44.254Z,29.70
2018-12-25T22:53:14.533Z,23.73
2018-12-25T22:55:44.815Z,26.97
2018-12-25T22:58:14.995Z,25.57
2018-12-25T23:00:45.505Z,25.00
2018-12-25T23:03:15.769Z,23.03
2018-12-25T23:05:45.965Z,24.87
2018-12-25T23:08:16.173Z,24.70
2018-12-25T23:10:46.453Z,23.83
2018-12-25T23:13:16.623Z,23.70
2018-12-25T23:15:46.822Z,24.77
2018-12-25T23:18:17.025Z,24.07
2018-12-25T23:20:47.225Z,24.77
2018-12-25T23:23:17.491Z,22.83
2018-12-25T23:25:47.789Z,23.37
2018-12-25T23:28:18.232Z,23.17
2018-12-25T23:30:48.507Z,21.97
2018-12-25T23:33:18.829Z,21.53
2018-12-25T23:35:49.046Z,21.27
2018-12-25T23:38:19.220Z,22.07
2018-12-25T23:40:49.485Z,20.77
2018-12-25T23:43:19.683Z,23.90
2018-12-25T23:45:49.865Z,21.07
2018-12-25T23:48:20.117Z,21.60
2018-12-25T23:50:50.323Z,19.63
2018-12-25T23:53:20.509Z,19.20
2018-12-25T23:55:53.095Z,21.83
2018-12-25T23:58:22.663Z,21.33
